Sedbergh, United Kingdom
Current Conditions -  °F | °C
As of 11:50 PM on Friday 24 Oct 2014 (Local Time) from EGXE Reporting Station
Broken Clouds Broken Clouds  
Wind Chill: 46°   Ceiling: 4500
Heat Index: 48°   Visibility: 6mi
Dew Point: 45°   Wind: 5mph
Humidity: 87%   Direction: 140°SE
Pressure: 29.85"   Gusts: NA
Location:  54.32°N, 2.53°W
Report Text: EGXE 242250Z AUTO 14004KT 9999 BKN045/// 09/07 Q1011
Loading
Personal Weather Stations






























Interactive Weather Map New forecast layout! Learn more

10-Day Weather Forecast

Advertisements
Track Severe Weather on mobile